Pagina principale
METAR-TAF:

METAR-TAF

Aeroporti :

Bückeburg, Germania

latitudine: 52-17N, longitudine: 009-05E, altezza: 70 m

Osservazione

Il bollettino è stato emesso 58 minuti fa, alle 16:20 UTC
Vento 9 kt da nord-est
Temperature 21°C
Umidità 40%
Pressione 1022 hPa
Visibilità 10 km o più

METAR: ETHB 311620Z AUTO 04009KT 9999 // ////// 21/07 Q1022 ///

Ora: 19:18 (17:18 UTC)


TAF: mancante

Osservazioni e previsioni meteorologiche di più di 4000 aeroporti (messaggi METAR e TAF).

Le stazioni disponibili sono rappresentate dai dischi gialli e rossi sulla carta.

Puntare il mouse per vedere il nome della stazione.

Clicca sopra per visualizzare le osservazioni e previsioni meteorologiche.

Per cambiare la mappa : fare clic sui pulsanti verdi con una croce nera per ingrandire, il pulsante verde con un trattino per diminuire, o sulla freccia verde per le mappe adiacenti.


METAR-TAF: